X  SluitMETAR luchtvaart weer gegevens      EBBR Brussels Airport

Temperatuur

10°C Temperatuur

8°C Dauwpunt

88% Vochtigheid



Wind

35 KM/U

22 MPH

10 M/S

19 KTS



270°
Het Westen
Huidig weer

Lichte regen Lichte regen
Luchtdruk 996.92 (hPa) - 29.44 (in)
Zicht 6.2 (mi) - 10 (km)
Vliegveld
Vliegveld code EBBR

Locatie Brussels Airport 10 (km)

Metar:
EBBR 252020Z 27019G30KT 9999 -RA FEW009 BKN015 10/08 Q0997 TEMPO 3500 RA BKN014

Tijd: 25-09-2020 22:20